Time;durP1;ratioP1;P1;durP2;ratioP2;P2;SDS_P1;SDS_P2;PMS_P1;PMS_P2;Temp;Humidity;BMP_temperature;BMP_pressure;BME280_temperature;BME280_humidity;BME280_pressure;Samples;Min_cycle;Max_cycle;Signal;HPM_P1;HPM_P2
2022/01/09 00:01:01;;;;;;;1.08;0.80;;;4.40;76.20;;;;;;5000094;28;20048;-68
2022/01/09 00:03:26;;;;;;;1.08;0.95;;;4.40;75.50;;;;;;5004520;28;20038;-68
2022/01/09 00:05:52;;;;;;;2.60;0.93;;;4.40;75.60;;;;;;4999638;28;20033;-69
2022/01/09 00:08:17;;;;;;;3.03;1.40;;;4.40;75.80;;;;;;5001187;28;20413;-68
2022/01/09 00:10:47;;;;;;;1.40;1.00;;;4.40;75.90;;;;;;4995092;28;20049;-68
2022/01/09 00:13:13;;;;;;;1.17;1.00;;;4.40;76.00;;;;;;5000445;28;20042;-69
2022/01/09 00:15:38;;;;;;;1.10;0.90;;;4.50;76.20;;;;;;5004393;28;20045;-68
2022/01/09 00:18:04;;;;;;;1.38;1.00;;;4.40;76.20;;;;;;4999858;28;20113;-69
2022/01/09 00:20:30;;;;;;;0.98;0.70;;;4.40;76.40;;;;;;4997540;28;20509;-69
2022/01/09 00:22:55;;;;;;;1.02;0.80;;;4.40;76.60;;;;;;5004204;28;20042;-69
2022/01/09 00:25:23;;;;;;;0.80;0.80;;;4.40;76.90;;;;;;5003326;28;20037;-69
2022/01/09 00:27:50;;;;;;;1.40;0.80;;;4.40;77.00;;;;;;5003390;28;20268;-68
2022/01/09 00:30:20;;;;;;;1.10;0.80;;;4.40;77.10;;;;;;5000492;28;20124;-68
2022/01/09 00:32:46;;;;;;;0.90;0.70;;;4.40;77.30;;;;;;5000470;28;20033;-66
2022/01/09 00:35:13;;;;;;;0.65;0.55;;;4.40;77.40;;;;;;4992018;28;20061;-67
2022/01/09 00:37:39;;;;;;;0.80;0.55;;;4.40;77.60;;;;;;4992544;28;20038;-69
2022/01/09 00:40:07;;;;;;;1.08;0.43;;;4.40;77.90;;;;;;4994461;28;20030;-69
2022/01/09 00:42:33;;;;;;;1.02;0.50;;;4.40;78.10;;;;;;4993415;28;20804;-68
2022/01/09 00:44:59;;;;;;;0.70;0.50;;;4.40;78.20;;;;;;4994019;28;20069;-68
2022/01/09 00:47:24;;;;;;;1.20;0.50;;;4.40;78.20;;;;;;4997649;28;20046;-69
2022/01/09 00:49:50;;;;;;;1.75;0.63;;;4.30;78.30;;;;;;4998883;28;20041;-68
2022/01/09 00:52:15;;;;;;;1.10;0.60;;;4.40;78.60;;;;;;4999806;28;20066;-67
2022/01/09 00:54:41;;;;;;;0.80;0.63;;;4.40;78.60;;;;;;4998895;28;20045;-68
2022/01/09 00:57:07;;;;;;;1.00;0.70;;;4.30;78.60;;;;;;4998996;28;20061;-67
2022/01/09 00:59:33;;;;;;;0.60;0.60;;;4.30;78.70;;;;;;4994433;28;20022;-68
2022/01/09 01:01:59;;;;;;;1.33;0.80;;;4.30;78.60;;;;;;4994910;28;20039;-68
2022/01/09 01:04:24;;;;;;;1.55;0.90;;;4.30;78.60;;;;;;4997508;28;20034;-68
2022/01/09 01:06:51;;;;;;;2.90;0.90;;;4.20;78.80;;;;;;4994395;28;20045;-69
2022/01/09 01:09:17;;;;;;;1.42;1.00;;;4.20;78.80;;;;;;4997613;28;20065;-68
2022/01/09 01:11:43;;;;;;;1.30;1.00;;;4.20;78.80;;;;;;4995899;28;20440;-68
2022/01/09 01:14:08;;;;;;;0.82;0.70;;;4.10;78.80;;;;;;4995796;28;20124;-68
2022/01/09 01:16:34;;;;;;;1.00;0.80;;;4.10;79.30;;;;;;5000929;28;20112;-68
2022/01/09 01:19:01;;;;;;;0.90;0.75;;;4.10;79.30;;;;;;5001905;28;20120;-68
2022/01/09 01:21:27;;;;;;;1.20;0.80;;;4.10;79.70;;;;;;4995338;28;20046;-68
2022/01/09 01:23:53;;;;;;;1.00;0.63;;;4.10;79.70;;;;;;5004351;28;20064;-68
2022/01/09 01:26:19;;;;;;;1.45;0.68;;;4.00;79.90;;;;;;4993771;28;20390;-69
2022/01/09 01:28:44;;;;;;;0.57;0.57;;;4.00;79.70;;;;;;4999477;28;20592;-68
2022/01/09 01:31:11;;;;;;;0.85;0.60;;;4.00;80.00;;;;;;5011747;28;20040;-68
2022/01/09 01:33:37;;;;;;;1.02;0.73;;;4.00;80.20;;;;;;4998456;28;20041;-68
2022/01/09 01:36:03;;;;;;;1.08;0.70;;;4.00;80.10;;;;;;5002419;28;20081;-68
2022/01/09 01:38:29;;;;;;;0.80;0.70;;;3.90;80.40;;;;;;4992903;28;20060;-68
2022/01/09 01:40:54;;;;;;;1.15;0.75;;;3.90;80.60;;;;;;5000288;28;20643;-69
2022/01/09 01:43:20;;;;;;;0.57;0.57;;;3.90;80.80;;;;;;5003006;28;20651;-68
2022/01/09 01:45:46;;;;;;;0.68;0.68;;;3.90;80.60;;;;;;4995532;28;20624;-68
2022/01/09 01:48:11;;;;;;;1.02;0.60;;;3.90;80.70;;;;;;4998175;28;20556;-68
2022/01/09 01:50:38;;;;;;;0.77;0.50;;;3.90;80.90;;;;;;4996072;28;20600;-67
2022/01/09 01:53:11;;;;;;;1.20;0.60;;;3.90;81.10;;;;;;4997627;28;20034;-68
2022/01/09 01:55:38;;;;;;;0.93;0.60;;;3.90;81.40;;;;;;4997175;28;21046;-68
2022/01/09 01:58:12;;;;;;;0.50;0.50;;;3.90;81.40;;;;;;4998333;28;20129;-68
2022/01/09 02:00:39;;;;;;;0.77;0.60;;;3.90;81.70;;;;;;5008879;28;20029;-68
2022/01/09 02:03:05;;;;;;;0.60;0.52;;;4.00;82.00;;;;;;5003497;28;20042;-68
2022/01/09 02:05:30;;;;;;;0.80;0.50;;;3.90;82.00;;;;;;5000871;28;20115;-69
2022/01/09 02:07:58;;;;;;;0.55;0.50;;;4.00;81.90;;;;;;5003988;28;20023;-68
2022/01/09 02:10:24;;;;;;;0.55;0.52;;;4.00;82.10;;;;;;5004779;28;20421;-67
2022/01/09 02:12:52;;;;;;;0.45;0.40;;;4.00;82.10;;;;;;4998318;28;20030;-68
2022/01/09 02:15:45;;;;;;;0.50;0.50;;;4.10;82.00;;;;;;5000894;28;20053;-68
2022/01/09 02:18:14;;;;;;;0.45;0.38;;;4.10;82.70;;;;;;5003428;28;20134;-69
2022/01/09 02:20:40;;;;;;;1.33;0.50;;;4.10;82.40;;;;;;5016833;28;20062;-68
2022/01/09 02:23:07;;;;;;;0.40;0.40;;;4.10;82.30;;;;;;5001650;28;20573;-68
2022/01/09 02:25:35;;;;;;;0.40;0.40;;;4.20;82.50;;;;;;4997513;28;20065;-69
2022/01/09 02:28:01;;;;;;;0.30;0.30;;;4.20;82.60;;;;;;5004214;28;20054;-68
2022/01/09 02:30:26;;;;;;;0.30;0.30;;;4.20;82.70;;;;;;5002268;28;20567;-68
2022/01/09 02:32:52;;;;;;;0.47;0.40;;;4.30;83.70;;;;;;5002668;28;20125;-68
2022/01/09 02:35:21;;;;;;;0.28;0.25;;;4.30;83.10;;;;;;4999407;28;20092;-68
2022/01/09 02:37:47;;;;;;;0.55;0.47;;;4.30;83.20;;;;;;5011770;28;20535;-69
2022/01/09 02:40:13;;;;;;;0.60;0.40;;;4.40;82.90;;;;;;5000744;28;20030;-69
2022/01/09 02:42:38;;;;;;;0.40;0.40;;;4.40;83.20;;;;;;5003190;28;20068;-66
2022/01/09 02:45:05;;;;;;;0.60;0.45;;;4.50;83.10;;;;;;5005567;28;20030;-68
2022/01/09 02:47:33;;;;;;;0.80;0.50;;;4.50;82.90;;;;;;5004090;28;20452;-68
2022/01/09 02:50:10;;;;;;;0.50;0.50;;;4.60;82.80;;;;;;4998105;28;20100;-68
2022/01/09 02:52:48;;;;;;;0.50;0.50;;;4.60;82.90;;;;;;5002936;28;20138;-68
2022/01/09 02:55:15;;;;;;;0.40;0.40;;;4.60;82.70;;;;;;5000931;28;20068;-68
2022/01/09 02:57:47;;;;;;;0.60;0.60;;;4.70;82.60;;;;;;5004947;28;20456;-70
2022/01/09 03:00:18;;;;;;;0.50;0.50;;;4.70;83.00;;;;;;4998851;28;20042;-68
2022/01/09 03:02:45;;;;;;;0.50;0.50;;;4.70;82.50;;;;;;5003201;28;21244;-68
2022/01/09 03:05:11;;;;;;;0.57;0.57;;;4.70;82.40;;;;;;4998135;28;20077;-68
2022/01/09 03:07:38;;;;;;;0.60;0.60;;;4.70;82.50;;;;;;5004959;28;20048;-68
2022/01/09 03:10:05;;;;;;;0.80;0.68;;;4.80;82.50;;;;;;4997551;28;20501;-68
2022/01/09 03:12:31;;;;;;;0.70;0.70;;;4.80;82.60;;;;;;5001215;28;20065;-68
2022/01/09 03:14:56;;;;;;;0.70;0.70;;;4.80;82.40;;;;;;5001713;28;20520;-68
2022/01/09 03:17:22;;;;;;;0.80;0.80;;;4.90;82.50;;;;;;5001601;28;20572;-68
2022/01/09 03:19:48;;;;;;;1.30;0.70;;;4.90;82.30;;;;;;5003784;28;20034;-68
2022/01/09 03:22:13;;;;;;;0.65;0.65;;;4.90;82.40;;;;;;5000596;28;20041;-68
2022/01/09 03:24:39;;;;;;;0.70;0.70;;;4.90;82.10;;;;;;4998271;28;20485;-67
2022/01/09 03:27:05;;;;;;;0.70;0.70;;;4.90;82.20;;;;;;5000313;28;20758;-69
2022/01/09 03:29:31;;;;;;;0.70;0.70;;;4.90;82.10;;;;;;5001695;28;20088;-69
2022/01/09 03:31:56;;;;;;;0.80;0.80;;;5.00;82.10;;;;;;4999492;28;20208;-68
2022/01/09 03:34:22;;;;;;;0.70;0.70;;;5.00;82.10;;;;;;5006257;28;20038;-68
2022/01/09 03:36:48;;;;;;;0.85;0.80;;;5.00;82.00;;;;;;4999808;28;20044;-68
2022/01/09 03:39:13;;;;;;;0.60;0.60;;;5.00;82.00;;;;;;5003515;28;20612;-68
2022/01/09 03:41:39;;;;;;;1.38;0.60;;;5.00;81.90;;;;;;5001233;28;20121;-69
2022/01/09 03:44:05;;;;;;;0.50;0.50;;;5.00;82.00;;;;;;5000389;28;20045;-68
2022/01/09 03:46:31;;;;;;;0.55;0.55;;;5.00;81.90;;;;;;5002905;28;20121;-68
2022/01/09 03:48:56;;;;;;;0.52;0.52;;;5.00;82.80;;;;;;5002940;28;20038;-68
2022/01/09 03:51:25;;;;;;;0.40;0.40;;;5.00;82.00;;;;;;5003594;28;20037;-69
2022/01/09 03:53:51;;;;;;;0.60;0.45;;;5.00;82.00;;;;;;5001892;28;20026;-67
2022/01/09 03:56:17;;;;;;;0.40;0.40;;;5.00;82.00;;;;;;4999990;28;20514;-69
2022/01/09 03:58:42;;;;;;;0.40;0.40;;;5.00;82.00;;;;;;4997484;28;20088;-68
2022/01/09 04:01:09;;;;;;;0.30;0.30;;;5.10;82.20;;;;;;4999928;28;20038;-68
2022/01/09 04:03:35;;;;;;;0.40;0.40;;;5.10;82.10;;;;;;4998483;28;20030;-68
2022/01/09 04:06:02;;;;;;;0.20;0.20;;;5.10;82.00;;;;;;5002841;28;20038;-69
2022/01/09 04:08:28;;;;;;;0.30;0.30;;;5.10;82.00;;;;;;5004146;28;20079;-68
2022/01/09 04:10:55;;;;;;;0.32;0.30;;;5.20;82.00;;;;;;4999742;28;20087;-68
2022/01/09 04:13:20;;;;;;;0.45;0.30;;;5.10;82.00;;;;;;4999704;28;20037;-68
2022/01/09 04:15:47;;;;;;;0.20;0.20;;;5.10;82.00;;;;;;5004923;28;20049;-68
2022/01/09 04:18:21;;;;;;;0.30;0.20;;;5.10;82.10;;;;;;5000513;28;20125;-69
2022/01/09 04:20:47;;;;;;;0.17;0.17;;;5.20;82.20;;;;;;5002821;28;20095;-68
2022/01/09 04:23:14;;;;;;;0.20;0.20;;;5.20;82.00;;;;;;4997713;28;20284;-68
2022/01/09 04:25:41;;;;;;;0.10;0.10;;;5.20;81.90;;;;;;4997812;28;20026;-68
2022/01/09 04:28:07;;;;;;;0.08;0.08;;;5.20;82.00;;;;;;5001127;28;20661;-68
2022/01/09 04:30:32;;;;;;;0.00;0.00;;;5.20;81.90;;;;;;4997826;28;20513;-69
2022/01/09 04:32:58;;;;;;;0.00;0.00;;;5.30;81.90;;;;;;4995650;28;20045;-69
2022/01/09 04:35:24;;;;;;;0.00;0.00;;;5.30;81.80;;;;;;5004826;28;20049;-68
2022/01/09 04:37:50;;;;;;;0.00;0.00;;;5.30;81.70;;;;;;4996458;28;20023;-68
2022/01/09 04:40:18;;;;;;;0.08;0.00;;;5.30;81.70;;;;;;5000799;28;20031;-68
2022/01/09 04:42:51;;;;;;;0.05;0.00;;;5.30;81.60;;;;;;5000133;28;20030;-68
2022/01/09 04:45:18;;;;;;;0.00;0.00;;;5.30;81.60;;;;;;4996783;28;20528;-67
2022/01/09 04:47:48;;;;;;;0.00;0.00;;;5.40;81.50;;;;;;4996202;28;20493;-68
2022/01/09 04:50:20;;;;;;;0.00;0.00;;;5.30;81.40;;;;;;4999679;28;20042;-68
2022/01/09 04:52:46;;;;;;;0.00;0.00;;;5.40;81.40;;;;;;5001445;28;20065;-68
2022/01/09 04:55:12;;;;;;;0.00;0.00;;;5.40;81.40;;;;;;5001837;28;20390;-68
2022/01/09 04:57:38;;;;;;;24.77;11.23;;;5.40;81.30;;;;;;4997971;28;20030;-69
2022/01/09 05:00:06;;;;;;;6.50;4.78;;;5.40;81.30;;;;;;4997818;28;20034;-68
2022/01/09 05:02:32;;;;;;;0.70;0.70;;;5.40;81.10;;;;;;4998741;28;20040;-69
2022/01/09 05:04:57;;;;;;;0.25;0.25;;;5.40;81.00;;;;;;4999294;28;20029;-68
2022/01/09 05:07:23;;;;;;;0.10;0.10;;;5.40;80.90;;;;;;5001187;28;20030;-68
2022/01/09 05:09:49;;;;;;;0.65;0.40;;;5.40;80.90;;;;;;4997262;28;20608;-68
2022/01/09 05:12:14;;;;;;;0.30;0.30;;;5.40;80.90;;;;;;4997312;28;20127;-68
2022/01/09 05:14:40;;;;;;;0.50;0.22;;;5.40;80.90;;;;;;5003620;28;20552;-69
2022/01/09 05:17:06;;;;;;;0.10;0.10;;;5.40;80.80;;;;;;5002448;28;20071;-68
2022/01/09 05:19:33;;;;;;;0.30;0.30;;;5.40;80.70;;;;;;5003024;28;20026;-68
2022/01/09 05:22:00;;;;;;;0.30;0.30;;;5.40;80.70;;;;;;4999353;28;20042;-69
2022/01/09 05:24:26;;;;;;;0.30;0.30;;;5.40;80.60;;;;;;5001140;28;20607;-69
2022/01/09 05:26:52;;;;;;;0.60;0.55;;;5.40;80.70;;;;;;4999803;28;20034;-69
2022/01/09 05:29:17;;;;;;;0.20;0.20;;;5.30;80.60;;;;;;5000719;28;20881;-69
2022/01/09 05:31:44;;;;;;;0.30;0.30;;;5.30;80.60;;;;;;5002398;28;20037;-69
2022/01/09 05:34:10;;;;;;;0.08;0.08;;;5.30;80.70;;;;;;5004171;28;20030;-68
2022/01/09 05:36:36;;;;;;;0.10;0.10;;;5.20;80.70;;;;;;5006105;28;20458;-68
2022/01/09 05:39:02;;;;;;;0.17;0.10;;;5.20;80.80;;;;;;5004396;28;20582;-68
2022/01/09 05:41:29;;;;;;;0.30;0.10;;;5.10;80.70;;;;;;5003545;28;20080;-69
2022/01/09 05:43:54;;;;;;;0.10;0.10;;;5.10;80.60;;;;;;4999612;28;20050;-69
2022/01/09 05:46:20;;;;;;;0.20;0.20;;;5.00;80.60;;;;;;5001440;28;20042;-69
2022/01/09 05:48:46;;;;;;;0.70;0.70;;;5.00;80.70;;;;;;5014102;28;20049;-69
2022/01/09 05:51:11;;;;;;;0.10;0.10;;;4.90;80.90;;;;;;5007826;28;20117;-68
2022/01/09 05:53:37;;;;;;;0.20;0.15;;;4.80;81.10;;;;;;5003156;28;20057;-69
2022/01/09 05:56:03;;;;;;;0.17;0.10;;;4.70;81.40;;;;;;5004116;28;20041;-68
2022/01/09 05:58:28;;;;;;;0.30;0.30;;;4.70;81.70;;;;;;5001704;28;20049;-69
2022/01/09 06:00:54;;;;;;;1.00;0.93;;;4.70;82.70;;;;;;5002566;28;20113;-69
2022/01/09 06:03:20;;;;;;;0.35;0.00;;;4.70;82.10;;;;;;5001668;28;20114;-67
2022/01/09 06:05:45;;;;;;;0.25;0.20;;;4.60;82.40;;;;;;5007573;28;20401;-68
2022/01/09 06:08:11;;;;;;;0.25;0.25;;;4.70;82.30;;;;;;5006761;28;20042;-69
2022/01/09 06:10:36;;;;;;;0.10;0.10;;;4.60;82.50;;;;;;5008474;28;20128;-68
2022/01/09 06:13:02;;;;;;;0.17;0.17;;;4.60;83.20;;;;;;5007388;28;20065;-68
2022/01/09 06:15:28;;;;;;;0.20;0.15;;;4.60;82.60;;;;;;5008421;28;20515;-68
2022/01/09 06:17:53;;;;;;;0.25;0.22;;;4.60;82.80;;;;;;5015209;28;20161;-68
2022/01/09 06:20:19;;;;;;;1.55;0.30;;;4.50;82.50;;;;;;5007554;28;20052;-69
2022/01/09 06:22:45;;;;;;;0.10;0.10;;;4.60;82.60;;;;;;5006708;28;20034;-68
2022/01/09 06:25:11;;;;;;;0.10;0.10;;;4.60;82.60;;;;;;5008503;28;20249;-69
2022/01/09 06:27:37;;;;;;;0.57;0.10;;;4.50;83.40;;;;;;5006705;28;20501;-68
2022/01/09 06:30:05;;;;;;;0.10;0.00;;;4.50;82.80;;;;;;5007481;28;20046;-68
2022/01/09 06:32:31;;;;;;;0.20;0.20;;;4.50;82.80;;;;;;5006668;28;20042;-69
2022/01/09 06:34:57;;;;;;;0.30;0.30;;;4.50;82.90;;;;;;5008970;28;20045;-69
2022/01/09 06:37:23;;;;;;;1.00;0.25;;;4.50;82.80;;;;;;5005735;28;20632;-69
2022/01/09 06:39:48;;;;;;;0.13;0.10;;;4.50;82.90;;;;;;5008746;28;20100;-69
2022/01/09 06:42:14;;;;;;;0.20;0.20;;;4.50;83.00;;;;;;5005749;28;20087;-69
2022/01/09 06:44:40;;;;;;;0.20;0.20;;;4.50;83.00;;;;;;5005378;28;20176;-69
2022/01/09 06:47:06;;;;;;;0.00;0.00;;;4.50;83.00;;;;;;5007149;28;20484;-69
2022/01/09 06:49:34;;;;;;;0.10;0.10;;;4.60;83.90;;;;;;5007096;28;20485;-69
2022/01/09 06:51:59;;;;;;;1.15;0.10;;;4.60;83.10;;;;;;5007345;28;20036;-69
2022/01/09 06:54:25;;;;;;;0.43;0.10;;;4.60;83.00;;;;;;5006234;28;20543;-69
2022/01/09 06:56:51;;;;;;;0.10;0.10;;;4.60;83.00;;;;;;5004918;28;20085;-68
2022/01/09 06:59:16;;;;;;;0.00;0.00;;;4.60;83.00;;;;;;5007323;28;20037;-68
2022/01/09 07:01:42;;;;;;;0.00;0.00;;;4.60;83.00;;;;;;5000423;28;21450;-68
2022/01/09 07:04:07;;;;;;;0.10;0.10;;;4.60;83.00;;;;;;4999378;28;20038;-69
2022/01/09 07:06:37;;;;;;;1.10;0.10;;;4.60;83.00;;;;;;4997166;28;20033;-68
2022/01/09 07:09:04;;;;;;;0.80;0.10;;;4.60;83.00;;;;;;4997932;28;20050;-68
2022/01/09 07:11:29;;;;;;;0.10;0.10;;;4.60;82.80;;;;;;4999203;28;20117;-69
2022/01/09 07:13:55;;;;;;;0.10;0.10;;;4.60;82.80;;;;;;4997827;28;20157;-68
2022/01/09 07:16:21;;;;;;;0.10;0.10;;;4.60;82.80;;;;;;4995455;28;20050;-68
2022/01/09 07:18:47;;;;;;;0.10;0.10;;;4.60;82.90;;;;;;4994789;28;20038;-68
2022/01/09 07:21:13;;;;;;;0.20;0.20;;;4.60;83.00;;;;;;4994023;28;20041;-68
2022/01/09 07:23:38;;;;;;;0.10;0.10;;;4.60;83.10;;;;;;4997240;28;20508;-68
2022/01/09 07:26:04;;;;;;;0.20;0.20;;;4.60;83.10;;;;;;4994434;28;20565;-69
2022/01/09 07:28:29;;;;;;;0.20;0.15;;;4.60;83.20;;;;;;5002666;28;20026;-70
2022/01/09 07:30:58;;;;;;;0.38;0.38;;;4.60;83.00;;;;;;5001705;28;20045;-69
2022/01/09 07:33:24;;;;;;;0.55;0.43;;;4.70;83.10;;;;;;5000690;28;20462;-69
2022/01/09 07:35:49;;;;;;;0.70;0.70;;;4.70;83.10;;;;;;5005822;28;20117;-68
2022/01/09 07:38:15;;;;;;;0.57;0.57;;;4.60;83.10;;;;;;4998295;28;20030;-69
2022/01/09 07:40:41;;;;;;;0.90;0.60;;;4.60;83.00;;;;;;4997702;28;20058;-68
2022/01/09 07:43:06;;;;;;;0.50;0.50;;;4.60;83.00;;;;;;4998168;28;20038;-69
2022/01/09 07:45:32;;;;;;;0.60;0.60;;;4.60;83.00;;;;;;4997417;28;20034;-68
2022/01/09 07:48:00;;;;;;;0.60;0.35;;;4.60;83.00;;;;;;4996086;28;20049;-69
2022/01/09 07:50:27;;;;;;;0.63;0.50;;;4.50;83.20;;;;;;4995787;28;20034;-68
2022/01/09 07:52:53;;;;;;;0.40;0.30;;;4.50;82.90;;;;;;4994026;28;20037;-68
2022/01/09 07:55:20;;;;;;;0.95;0.60;;;4.60;83.00;;;;;;4996109;28;20241;-68
2022/01/09 07:57:47;;;;;;;0.45;0.40;;;4.50;83.00;;;;;;4997226;28;20037;-69
2022/01/09 08:00:16;;;;;;;0.98;0.50;;;4.60;83.00;;;;;;4997464;28;20797;-67
2022/01/09 08:02:43;;;;;;;0.57;0.43;;;4.50;83.00;;;;;;4990148;28;20152;-69
2022/01/09 08:05:10;;;;;;;0.30;0.30;;;4.50;82.90;;;;;;4995848;28;20037;-68
2022/01/09 08:07:36;;;;;;;0.30;0.30;;;4.50;82.80;;;;;;4993107;28;20121;-69
2022/01/09 08:10:02;;;;;;;0.55;0.40;;;4.50;82.80;;;;;;4991029;28;20043;-69
2022/01/09 08:12:28;;;;;;;0.60;0.38;;;4.50;82.90;;;;;;4995636;28;20788;-69
2022/01/09 08:14:53;;;;;;;0.30;0.30;;;4.50;83.00;;;;;;4999798;28;20038;-70
2022/01/09 08:17:19;;;;;;;0.70;0.50;;;4.40;83.00;;;;;;4998689;28;20530;-68
2022/01/09 08:19:45;;;;;;;0.63;0.50;;;4.40;83.00;;;;;;4994746;28;20065;-68
2022/01/09 08:22:10;;;;;;;0.90;0.55;;;4.40;83.10;;;;;;4996295;28;20033;-69
2022/01/09 08:24:38;;;;;;;3.00;0.90;;;4.30;83.20;;;;;;4997691;28;20030;-69
2022/01/09 08:27:05;;;;;;;1.95;0.63;;;4.40;83.30;;;;;;4997836;28;20034;-70
2022/01/09 08:29:30;;;;;;;1.17;0.50;;;4.40;83.50;;;;;;4998216;28;20106;-69
2022/01/09 08:31:56;;;;;;;1.13;0.52;;;4.40;84.40;;;;;;4997185;28;20034;-69
2022/01/09 08:34:22;;;;;;;2.30;0.80;;;4.40;83.60;;;;;;4993680;28;20113;-70
2022/01/09 08:36:47;;;;;;;0.88;0.55;;;4.40;83.80;;;;;;4996182;28;20045;-68
2022/01/09 08:39:13;;;;;;;0.50;0.50;;;4.40;83.70;;;;;;4999395;28;20109;-69
2022/01/09 08:41:39;;;;;;;0.73;0.70;;;4.40;83.90;;;;;;4991172;28;20070;-69
2022/01/09 08:44:06;;;;;;;0.68;0.52;;;4.40;84.00;;;;;;4996910;28;21101;-69
2022/01/09 08:46:34;;;;;;;1.45;0.70;;;4.40;83.80;;;;;;4994790;28;20027;-69
2022/01/09 08:49:00;;;;;;;1.25;0.70;;;4.40;83.90;;;;;;4995953;28;20497;-69
2022/01/09 08:51:27;;;;;;;1.90;0.90;;;4.40;83.80;;;;;;4995100;28;20037;-69
2022/01/09 08:53:53;;;;;;;1.25;0.60;;;4.40;83.70;;;;;;5002577;28;20468;-68
2022/01/09 08:56:24;;;;;;;1.08;0.70;;;4.40;83.70;;;;;;4997324;28;20034;-69
2022/01/09 08:58:51;;;;;;;1.17;0.60;;;4.40;84.00;;;;;;4998045;28;20045;-69
2022/01/09 09:01:17;;;;;;;2.90;0.80;;;4.40;83.90;;;;;;4993675;28;20163;-69
2022/01/09 09:03:43;;;;;;;3.50;1.38;;;4.50;84.00;;;;;;5002028;28;20037;-69
2022/01/09 09:06:14;;;;;;;2.90;0.80;;;4.40;83.90;;;;;;5000990;28;20113;-69
2022/01/09 09:08:41;;;;;;;5.97;1.48;;;4.50;84.10;;;;;;4999488;28;20037;-70
2022/01/09 09:11:09;;;;;;;0.82;0.70;;;4.50;84.00;;;;;;5000465;28;20034;-69
2022/01/09 09:13:35;;;;;;;2.28;0.80;;;4.50;84.00;;;;;;5000033;28;20060;-69
2022/01/09 09:16:01;;;;;;;23.38;8.00;;;4.60;84.00;;;;;;4997989;28;20104;-68
2022/01/09 09:18:27;;;;;;;3.67;2.00;;;4.60;83.90;;;;;;5001959;28;20030;-69
2022/01/09 09:20:53;;;;;;;1.88;1.17;;;4.60;83.90;;;;;;5002738;28;20444;-69
2022/01/09 09:23:18;;;;;;;1.35;1.02;;;4.70;83.90;;;;;;5002890;28;20030;-69
2022/01/09 09:25:45;;;;;;;1.48;1.00;;;4.70;83.70;;;;;;5002899;28;20034;-70
2022/01/09 09:28:10;;;;;;;3.22;1.45;;;4.70;83.60;;;;;;4998713;28;20037;-67
2022/01/09 09:30:36;;;;;;;4.10;1.17;;;4.80;83.70;;;;;;5000965;28;20385;-68
2022/01/09 09:33:05;;;;;;;2.63;1.30;;;4.80;83.50;;;;;;4999207;28;20889;-68
2022/01/09 09:35:31;;;;;;;3.60;1.42;;;4.90;83.30;;;;;;5001924;28;20375;-69
2022/01/09 09:37:57;;;;;;;2.13;1.10;;;4.90;83.20;;;;;;5003716;28;20033;-69
2022/01/09 09:40:23;;;;;;;2.88;1.30;;;4.90;83.20;;;;;;5001978;28;20641;-69
2022/01/09 09:42:49;;;;;;;3.05;1.33;;;4.90;83.20;;;;;;5003162;28;20493;-69
2022/01/09 09:45:15;;;;;;;2.60;1.30;;;5.00;83.20;;;;;;5000754;28;20038;-68
2022/01/09 09:47:41;;;;;;;4.50;1.33;;;5.00;83.10;;;;;;5001284;28;20409;-69
2022/01/09 09:50:10;;;;;;;3.90;2.50;;;5.00;82.90;;;;;;5002401;28;20073;-69
2022/01/09 09:52:35;;;;;;;3.70;2.20;;;5.00;83.00;;;;;;5002651;28;20405;-68
2022/01/09 09:55:02;;;;;;;2.35;1.02;;;5.00;83.00;;;;;;5000868;28;20037;-69
2022/01/09 09:57:28;;;;;;;2.85;0.82;;;5.10;82.80;;;;;;5004534;28;20544;-69
2022/01/09 10:00:04;;;;;;;1.60;0.60;;;5.10;83.50;;;;;;5004158;28;20071;-68
2022/01/09 10:02:51;;;;;;;3.03;0.60;;;5.10;82.60;;;;;;5002687;28;20054;-69
2022/01/09 10:05:22;;;;;;;2.80;0.90;;;5.20;82.50;;;;;;5004376;28;20038;-70
2022/01/09 10:07:48;;;;;;;3.50;1.85;;;5.20;82.30;;;;;;5004106;28;20038;-69
2022/01/09 10:10:19;;;;;;;4.20;1.85;;;5.20;82.30;;;;;;5004137;28;20038;-69
2022/01/09 10:12:46;;;;;;;3.55;0.93;;;5.30;82.30;;;;;;5002965;28;20033;-68
2022/01/09 10:15:17;;;;;;;3.08;0.70;;;5.30;82.10;;;;;;5001592;28;20173;-68
2022/01/09 10:17:49;;;;;;;3.33;0.88;;;5.30;81.90;;;;;;5003106;28;20032;-69
2022/01/09 10:20:16;;;;;;;4.30;1.00;;;5.30;81.80;;;;;;5005994;28;20409;-69
2022/01/09 10:22:52;;;;;;;3.63;1.10;;;5.30;81.60;;;;;;5006137;28;20030;-68
2022/01/09 10:25:26;;;;;;;3.70;0.70;;;5.40;81.70;;;;;;5013733;28;20041;-69
2022/01/09 10:27:58;;;;;;;5.18;2.83;;;5.40;81.70;;;;;;5007699;28;20050;-68
2022/01/09 10:30:27;;;;;;;5.50;2.80;;;5.40;81.50;;;;;;5006388;28;20038;-70
2022/01/09 10:33:03;;;;;;;2.58;1.30;;;5.50;81.40;;;;;;5008786;28;20069;-69
2022/01/09 10:35:30;;;;;;;3.75;1.15;;;5.50;81.30;;;;;;5006706;28;20513;-68
2022/01/09 10:38:23;;;;;;;4.07;1.05;;;5.50;81.20;;;;;;5007746;28;20034;-69
2022/01/09 10:40:58;;;;;;;3.08;0.70;;;5.60;81.30;;;;;;5004481;28;20483;-69
2022/01/09 10:43:32;;;;;;;;;;;5.60;81.40;;;;;;5006085;28;20390;-69
2022/01/09 10:45:59;;;;;;;1.92;0.60;;;5.60;81.10;;;;;;5006730;28;19947;-68
2022/01/09 10:48:45;;;;;;;3.45;0.80;;;5.70;81.70;;;;;;5006832;28;20093;-68
2022/01/09 10:51:13;;;;;;;3.92;0.60;;;5.70;80.10;;;;;;5007544;28;20116;-68
2022/01/09 10:53:44;;;;;;;4.25;0.82;;;5.70;80.20;;;;;;5007864;28;20050;-68
2022/01/09 10:56:15;;;;;;;3.20;0.70;;;5.70;79.70;;;;;;5002164;28;20034;-68
2022/01/09 10:58:49;;;;;;;3.15;0.88;;;5.70;79.50;;;;;;5005374;28;20038;-68
2022/01/09 11:01:18;;;;;;;2.55;0.75;;;5.70;79.50;;;;;;5005433;28;20041;-69
2022/01/09 11:03:46;;;;;;;2.95;0.75;;;5.70;79.60;;;;;;5007600;28;20520;-68
2022/01/09 11:06:12;;;;;;;2.75;1.00;;;5.60;79.60;;;;;;5007535;28;20033;-68
2022/01/09 11:08:39;;;;;;;2.95;0.70;;;5.70;79.90;;;;;;5022219;28;20109;-69
2022/01/09 11:11:09;;;;;;;2.03;0.60;;;5.70;79.80;;;;;;5004627;28;20089;-68
2022/01/09 11:13:38;;;;;;;1.58;0.70;;;5.70;80.00;;;;;;5007868;28;20045;-68
2022/01/09 11:18:49;;;;;;;;;;;5.70;80.30;;;;;;5008323;28;20260;-69
2022/01/09 11:21:15;;;;;;;4.43;2.10;;;5.80;80.00;;;;;;5007732;28;19925;-68
2022/01/09 11:23:59;;;;;;;2.38;1.33;;;5.90;80.00;;;;;;5008002;28;20050;-68
2022/01/09 11:26:32;;;;;;;1.98;0.75;;;5.90;79.60;;;;;;5006482;28;20501;-69
2022/01/09 11:28:58;;;;;;;2.75;1.20;;;6.00;79.50;;;;;;5007805;28;20087;-69
2022/01/09 11:31:35;;;;;;;2.80;1.20;;;6.00;79.70;;;;;;5007094;28;20038;-69
2022/01/09 11:34:10;;;;;;;4.03;0.85;;;6.00;79.20;;;;;;5007682;28;20069;-69
2022/01/09 11:37:00;;;;;;;2.47;1.10;;;6.10;78.90;;;;;;5008087;28;20045;-68
2022/01/09 11:39:35;;;;;;;2.90;0.95;;;6.10;78.50;;;;;;5007369;28;20505;-68
2022/01/09 11:42:13;;;;;;;5.47;1.48;;;6.10;78.10;;;;;;5006504;28;20041;-69
2022/01/09 11:44:50;;;;;;;3.45;1.63;;;6.20;78.30;;;;;;5020558;28;20033;-69
2022/01/09 11:47:18;;;;;;;4.65;2.35;;;6.20;78.50;;;;;;5006270;28;20065;-70
2022/01/09 11:49:50;;;;;;;1.40;0.75;;;6.30;79.00;;;;;;5007360;28;20084;-69
2022/01/09 11:52:15;;;;;;;3.38;0.90;;;6.30;78.30;;;;;;5006566;28;20044;-68
2022/01/09 11:54:56;;;;;;;3.05;0.90;;;6.30;78.30;;;;;;5006757;28;20034;-69
2022/01/09 11:57:47;;;;;;;3.17;0.68;;;6.40;77.80;;;;;;5021499;28;20129;-68
2022/01/09 12:00:30;;;;;;;3.33;1.30;;;6.40;76.90;;;;;;5006540;28;20034;-69
2022/01/09 12:02:57;;;;;;;4.05;1.25;;;6.40;77.70;;;;;;5007422;28;20026;-69
2022/01/09 12:05:23;;;;;;;4.47;0.80;;;6.50;78.30;;;;;;5006626;28;20096;-68
2022/01/09 12:07:48;;;;;;;4.22;0.80;;;6.50;77.70;;;;;;5006984;28;20026;-68
2022/01/09 12:10:17;;;;;;;1.23;0.70;;;6.60;77.70;;;;;;5006174;28;20088;-69
2022/01/09 12:12:43;;;;;;;2.95;1.23;;;6.60;77.20;;;;;;5003982;28;20026;-69
2022/01/09 12:15:09;;;;;;;2.35;1.10;;;6.60;76.40;;;;;;5007585;28;20586;-68
2022/01/09 12:17:40;;;;;;;3.70;1.30;;;6.60;76.20;;;;;;5005369;28;20038;-69
2022/01/09 12:20:12;;;;;;;5.55;2.03;;;6.60;76.00;;;;;;5006672;28;20225;-68
2022/01/09 12:22:42;;;;;;;6.35;1.77;;;6.60;75.70;;;;;;5005771;28;20037;-69
2022/01/09 12:25:09;;;;;;;4.68;1.83;;;6.50;75.70;;;;;;5003907;28;20049;-69
2022/01/09 12:27:47;;;;;;;6.55;1.60;;;6.50;75.70;;;;;;5022342;28;20026;-69
2022/01/09 12:33:16;;;;;;;4.43;1.83;;;6.50;75.50;;;;;;5006295;28;20034;-69
2022/01/09 12:35:57;;;;;;;3.80;1.23;;;6.40;76.00;;;;;;5007139;28;20056;-68
2022/01/09 12:38:24;;;;;;;5.40;1.33;;;6.50;76.30;;;;;;5004381;28;20393;-69
2022/01/09 12:41:00;;;;;;;5.47;1.52;;;6.40;76.50;;;;;;5003954;28;20034;-68
2022/01/09 12:43:27;;;;;;;4.50;1.20;;;6.40;76.50;;;;;;5005559;28;20062;-68
2022/01/09 12:45:54;;;;;;;2.88;1.08;;;6.40;76.70;;;;;;5002979;28;20319;-68
2022/01/09 12:48:25;;;;;;;5.57;1.10;;;6.40;76.80;;;;;;4999089;28;20057;-70
2022/01/09 12:50:51;;;;;;;3.97;0.82;;;6.40;76.80;;;;;;5001094;28;20042;-69
2022/01/09 12:53:29;;;;;;;3.45;0.80;;;6.40;76.70;;;;;;5000120;28;20078;-69
2022/01/09 12:56:04;;;;;;;4.00;0.90;;;6.40;76.60;;;;;;5006539;28;20082;-69
2022/01/09 12:58:40;;;;;;;1.95;0.63;;;6.40;76.50;;;;;;5005274;28;20058;-69
2022/01/09 13:01:24;;;;;;;2.30;0.75;;;6.50;76.40;;;;;;5005063;28;20038;-69
2022/01/09 13:04:00;;;;;;;2.25;0.75;;;6.50;76.20;;;;;;5004903;28;20049;-69
2022/01/09 13:06:27;;;;;;;2.67;0.93;;;6.60;76.60;;;;;;5001238;28;20501;-70